Time;durP1;ratioP1;P1;durP2;ratioP2;P2;SDS_P1;SDS_P2;PMS_P1;PMS_P2;Temp;Humidity;BMP_temperature;BMP_pressure;BME280_temperature;BME280_humidity;BME280_pressure;Samples;Min_cycle;Max_cycle;Signal;HPM_P1;HPM_P2
2022/07/04 00:00:58;;;;;;;1.63;0.90;;;;;24.60;100899.00;;;;2079335;28;20271;-49
2022/07/04 00:02:00;;;;;;;0.80;0.50;;;;;24.60;100891.00;;;;2075697;28;20650;-49
2022/07/04 00:03:00;;;;;;;1.08;0.60;;;;;24.60;100895.00;;;;2068407;28;20220;-49
2022/07/04 00:04:00;;;;;;;1.17;0.60;;;;;24.60;100900.00;;;;2086468;28;20224;-49
2022/07/04 00:05:01;;;;;;;1.20;0.70;;;;;24.70;100889.00;;;;2084136;28;20221;-49
2022/07/04 00:06:02;;;;;;;1.97;0.60;;;;;24.60;100912.00;;;;2079177;28;20860;-49
2022/07/04 00:07:03;;;;;;;1.00;0.60;;;;;24.70;100895.00;;;;2076152;28;20218;-49
2022/07/04 00:08:03;;;;;;;0.90;0.73;;;;;24.60;100887.00;;;;2068758;28;20713;-49
2022/07/04 00:09:04;;;;;;;1.10;0.60;;;;;24.60;100890.00;;;;2076027;28;20934;-49
2022/07/04 00:10:05;;;;;;;1.30;0.57;;;;;24.60;100894.00;;;;2076658;28;20251;-50
2022/07/04 00:11:05;;;;;;;0.90;0.57;;;;;24.70;100891.00;;;;2070939;28;20221;-50
2022/07/04 00:12:06;;;;;;;1.53;0.50;;;;;24.60;100887.00;;;;2078625;28;20538;-49
2022/07/04 00:13:06;;;;;;;0.80;0.50;;;;;24.60;100888.00;;;;2079090;28;20225;-50
2022/07/04 00:14:07;;;;;;;1.13;0.60;;;;;24.60;100885.00;;;;2078555;28;20681;-49
2022/07/04 00:15:08;;;;;;;1.00;0.60;;;;;24.70;100893.00;;;;2075590;28;20217;-49
2022/07/04 00:16:08;;;;;;;1.00;0.60;;;;;24.70;100886.00;;;;2074770;28;20221;-49
2022/07/04 00:17:08;;;;;;;1.10;0.60;;;;;24.70;100892.00;;;;2071112;28;20245;-49
2022/07/04 00:18:09;;;;;;;1.00;0.50;;;;;24.70;100890.00;;;;2069939;28;20211;-49
2022/07/04 00:19:09;;;;;;;0.90;0.60;;;;;24.60;100902.00;;;;2076531;28;20218;-49
2022/07/04 00:20:10;;;;;;;1.27;0.67;;;;;24.60;100901.00;;;;2078732;28;20248;-49
2022/07/04 00:21:10;;;;;;;1.03;0.50;;;;;24.60;100894.00;;;;2070895;28;20234;-50
2022/07/04 00:22:10;;;;;;;0.80;0.60;;;;;24.60;100899.00;;;;2071024;28;20214;-50
2022/07/04 00:23:11;;;;;;;1.40;0.63;;;;;24.60;100901.00;;;;2070289;28;20304;-49
2022/07/04 00:24:11;;;;;;;0.83;0.50;;;;;24.70;100894.00;;;;2074155;28;20230;-50
2022/07/04 00:25:12;;;;;;;1.47;0.73;;;;;24.60;100903.00;;;;2070774;28;20225;-49
2022/07/04 00:26:12;;;;;;;1.30;0.70;;;;;24.60;100897.00;;;;2071156;28;20241;-49
2022/07/04 00:27:12;;;;;;;1.40;0.80;;;;;24.60;100897.00;;;;2071175;28;20629;-50
2022/07/04 00:28:13;;;;;;;1.10;0.70;;;;;24.60;100896.00;;;;2073455;28;20225;-50
2022/07/04 00:29:14;;;;;;;1.37;0.80;;;;;24.70;100895.00;;;;2074828;28;20217;-49
2022/07/04 00:30:14;;;;;;;0.90;0.77;;;;;24.60;100896.00;;;;2078856;28;20233;-49
2022/07/04 00:31:14;;;;;;;2.00;1.03;;;;;24.60;100888.00;;;;2078553;28;20959;-49
2022/07/04 00:32:14;;;;;;;1.93;0.90;;;;;24.60;100877.00;;;;2077987;28;20731;-54
2022/07/04 00:33:16;;;;;;;1.73;0.80;;;;;24.60;100879.00;;;;2071402;28;20727;-52
2022/07/04 00:34:16;;;;;;;1.00;0.82;;;;;24.60;100878.00;;;;2069895;28;20268;-50
2022/07/04 00:35:16;;;;;;;1.43;0.80;;;;;24.70;100879.00;;;;2075659;28;20210;-50
2022/07/04 00:36:17;;;;;;;1.90;1.00;;;;;24.70;100880.00;;;;2078762;28;20271;-50
2022/07/04 00:37:17;;;;;;;2.43;0.90;;;;;24.70;100869.00;;;;2074842;28;20280;-50
2022/07/04 00:38:18;;;;;;;1.73;0.90;;;;;24.70;100879.00;;;;2070070;28;20230;-49
2022/07/04 00:39:18;;;;;;;1.20;0.80;;;;;24.70;100877.00;;;;2070721;28;20210;-49
2022/07/04 00:40:18;;;;;;;1.27;0.77;;;;;24.60;100880.00;;;;2069851;28;20233;-50
2022/07/04 00:41:19;;;;;;;1.73;0.90;;;;;24.50;100878.00;;;;2077205;28;20292;-50
2022/07/04 00:42:19;;;;;;;1.30;0.70;;;;;24.70;100877.00;;;;2075263;28;20217;-48
2022/07/04 00:43:23;;;;;;;1.87;0.90;;;;;24.70;100784.00;;;;2078820;28;20689;-50
2022/07/04 00:44:23;;;;;;;1.88;0.93;;;;;24.70;100881.00;;;;2078603;28;20251;-49
2022/07/04 00:45:24;;;;;;;2.13;1.30;;;;;24.70;100878.00;;;;2075050;28;20748;-50
2022/07/04 00:46:24;;;;;;;1.80;0.90;;;;;24.60;100882.00;;;;2070434;28;20697;-50
2022/07/04 00:47:24;;;;;;;1.20;0.90;;;;;24.60;100889.00;;;;2069052;28;20269;-48
2022/07/04 00:48:25;;;;;;;2.23;0.90;;;;;24.60;100882.00;;;;2069828;28;20221;-49
2022/07/04 00:49:25;;;;;;;1.87;0.87;;;;;24.60;100889.00;;;;2070696;28;20241;-50
2022/07/04 00:50:26;;;;;;;2.47;1.00;;;;;24.70;100876.00;;;;2071234;28;20586;-49
2022/07/04 00:51:26;;;;;;;1.70;0.87;;;;;24.60;100879.00;;;;2078545;28;20667;-49
2022/07/04 00:52:27;;;;;;;1.70;1.00;;;;;24.60;100881.00;;;;2078868;28;20227;-50
2022/07/04 00:53:28;;;;;;;2.55;1.10;;;;;24.60;100877.00;;;;2069961;28;20305;-50
2022/07/04 00:54:29;;;;;;;1.53;1.00;;;;;24.60;100879.00;;;;2069275;28;20304;-50
2022/07/04 00:55:30;;;;;;;1.50;0.95;;;;;24.60;100873.00;;;;2086182;28;20212;-49
2022/07/04 00:56:30;;;;;;;1.47;0.90;;;;;24.70;100879.00;;;;2070020;28;20272;-50
2022/07/04 00:57:30;;;;;;;3.10;1.40;;;;;24.70;100874.00;;;;2068999;28;20219;-49
2022/07/04 00:58:31;;;;;;;1.40;0.80;;;;;24.70;100879.00;;;;2085184;28;21090;-49
2022/07/04 00:59:31;;;;;;;1.70;1.47;;;;;24.60;100889.00;;;;2075636;28;20744;-49
2022/07/04 01:00:31;;;;;;;3.23;1.20;;;;;24.60;100889.00;;;;2078405;28;20992;-49
2022/07/04 01:01:32;;;;;;;2.90;1.10;;;;;24.60;100882.00;;;;2077112;28;20709;-49
2022/07/04 01:02:33;;;;;;;1.23;0.70;;;;;24.60;100883.00;;;;2077777;28;20773;-49
2022/07/04 01:03:33;;;;;;;1.33;0.93;;;;;24.60;100879.00;;;;2057515;28;20215;-49
2022/07/04 01:04:34;;;;;;;1.60;1.10;;;;;24.60;100882.00;;;;2059657;28;20470;-50
2022/07/04 01:05:34;;;;;;;2.57;1.07;;;;;24.70;100874.00;;;;2070693;28;20229;-49
2022/07/04 01:06:35;;;;;;;2.83;1.10;;;;;24.70;100869.00;;;;2071040;28;20214;-49
2022/07/04 01:07:35;;;;;;;1.33;0.90;;;;;24.60;100875.00;;;;2073346;28;20226;-49
2022/07/04 01:08:40;;;;;;;1.00;0.87;;;;;24.60;100875.00;;;;2074187;28;20259;-49
2022/07/04 01:09:40;;;;;;;1.85;1.02;;;;;24.60;100891.00;;;;2070682;28;20288;-49
2022/07/04 01:10:41;;;;;;;2.90;1.53;;;;;24.60;100875.00;;;;2068050;28;20697;-49
2022/07/04 01:11:41;;;;;;;2.30;1.13;;;;;24.60;100875.00;;;;2070120;28;20273;-49
2022/07/04 01:12:41;;;;;;;1.90;1.10;;;;;24.60;100872.00;;;;2076705;28;20233;-49
2022/07/04 01:13:42;;;;;;;2.10;1.27;;;;;24.70;100869.00;;;;2078074;28;20267;-49
2022/07/04 01:14:42;;;;;;;1.87;0.90;;;;;24.70;100869.00;;;;2078346;28;20267;-49
2022/07/04 01:15:43;;;;;;;2.20;1.10;;;;;24.60;100875.00;;;;2077293;28;20248;-49
2022/07/04 01:16:43;;;;;;;1.47;1.00;;;;;24.60;100862.00;;;;2070558;28;20686;-49
2022/07/04 01:17:43;;;;;;;2.97;1.17;;;;;24.70;100866.00;;;;2069693;28;20765;-49
2022/07/04 01:18:44;;;;;;;2.50;1.10;;;;;24.60;100869.00;;;;2070653;28;20682;-49
2022/07/04 01:19:44;;;;;;;1.93;1.20;;;;;24.60;100867.00;;;;2070638;28;20210;-49
2022/07/04 01:20:44;;;;;;;2.20;1.10;;;;;24.70;100866.00;;;;2070325;28;20225;-49
2022/07/04 01:21:45;;;;;;;3.13;1.10;;;;;24.60;100873.00;;;;2073356;28;20584;-49
2022/07/04 01:22:45;;;;;;;2.00;1.20;;;;;24.60;100865.00;;;;2078722;28;20619;-50
2022/07/04 01:23:46;;;;;;;2.40;1.33;;;;;24.60;100865.00;;;;2066553;28;20676;-49
2022/07/04 01:24:46;;;;;;;1.40;0.80;;;;;24.60;100861.00;;;;2070336;28;20217;-49
2022/07/04 01:25:48;;;;;;;2.70;1.00;;;;;24.60;100863.00;;;;2070306;28;20670;-49
2022/07/04 01:26:48;;;;;;;1.95;1.05;;;;;24.60;100865.00;;;;2061654;28;20736;-49
2022/07/04 01:27:49;;;;;;;2.70;1.23;;;;;24.60;100863.00;;;;2061017;28;20210;-49
2022/07/04 01:28:49;;;;;;;1.67;1.13;;;;;24.60;100863.00;;;;2070355;28;20218;-49
2022/07/04 01:29:49;;;;;;;1.97;1.10;;;;;24.60;100861.00;;;;2070663;28;20792;-50
2022/07/04 01:30:50;;;;;;;1.60;1.10;;;;;24.60;100860.00;;;;2070413;28;21020;-49
2022/07/04 01:31:51;;;;;;;1.57;1.00;;;;;24.60;100859.00;;;;2070296;28;20210;-49
2022/07/04 01:32:51;;;;;;;2.10;1.10;;;;;24.60;100863.00;;;;2070497;28;20261;-49
2022/07/04 01:33:51;;;;;;;2.10;1.00;;;;;24.60;100862.00;;;;2070546;28;20523;-49
2022/07/04 01:34:52;;;;;;;1.40;1.00;;;;;24.60;100863.00;;;;2070127;28;20626;-49
2022/07/04 01:35:52;;;;;;;1.40;0.90;;;;;24.60;100860.00;;;;2070319;28;20338;-49
2022/07/04 01:36:52;;;;;;;1.87;1.00;;;;;24.60;100862.00;;;;2070795;28;20252;-49
2022/07/04 01:37:53;;;;;;;3.70;1.67;;;;;24.60;100860.00;;;;2071637;28;20241;-49
2022/07/04 01:38:54;;;;;;;1.90;1.20;;;;;24.60;100858.00;;;;2070305;28;20214;-49
2022/07/04 01:39:54;;;;;;;1.40;0.80;;;;;24.60;100862.00;;;;2070179;28;20218;-50
2022/07/04 01:40:54;;;;;;;3.07;1.37;;;;;24.60;100862.00;;;;2070321;28;20253;-49
2022/07/04 01:41:55;;;;;;;1.77;0.90;;;;;24.60;100867.00;;;;2069806;28;20581;-50
2022/07/04 01:42:55;;;;;;;1.53;1.13;;;;;24.60;100871.00;;;;2070435;28;20559;-49
2022/07/04 01:43:56;;;;;;;3.13;1.20;;;;;24.60;100866.00;;;;2070463;28;20236;-50
2022/07/04 01:44:56;;;;;;;1.07;0.90;;;;;24.60;100867.00;;;;2070370;28;20210;-49
2022/07/04 01:45:56;;;;;;;1.90;1.00;;;;;24.60;100866.00;;;;2070166;28;20283;-49
2022/07/04 01:46:56;;;;;;;2.10;1.20;;;;;24.70;100859.00;;;;2069963;28;20552;-49
2022/07/04 01:47:57;;;;;;;1.37;0.90;;;;;24.70;100859.00;;;;2069425;28;20881;-49
2022/07/04 01:48:57;;;;;;;1.90;1.20;;;;;24.70;100861.00;;;;2070495;28;20578;-49
2022/07/04 01:49:57;;;;;;;1.70;1.20;;;;;24.70;100852.00;;;;2070229;28;20578;-50
2022/07/04 01:50:58;;;;;;;2.33;1.33;;;;;24.60;100851.00;;;;2070239;28;20890;-49
2022/07/04 01:51:58;;;;;;;2.03;1.03;;;;;24.60;100861.00;;;;2070284;28;20297;-50
2022/07/04 01:52:58;;;;;;;2.50;1.50;;;;;24.60;100859.00;;;;2070336;28;20264;-50
2022/07/04 01:53:59;;;;;;;1.97;1.37;;;;;24.60;100866.00;;;;2070468;28;20225;-49
2022/07/04 01:54:59;;;;;;;2.90;1.10;;;;;24.60;100866.00;;;;2070251;28;20221;-49
2022/07/04 01:56:00;;;;;;;2.13;1.30;;;;;24.60;100865.00;;;;2069641;28;20218;-49
2022/07/04 01:57:00;;;;;;;1.10;0.93;;;;;24.60;100871.00;;;;2069466;28;20256;-50
2022/07/04 01:58:01;;;;;;;2.17;1.00;;;;;24.60;100868.00;;;;2069250;28;20477;-49
2022/07/04 01:59:03;;;;;;;1.60;0.90;;;;;24.70;100866.00;;;;2070323;28;20279;-49
2022/07/04 02:01:30;;;;;;;1.45;1.02;;;;;24.60;100868.00;;;;2068288;28;20203;-53
2022/07/04 02:02:30;;;;;;;1.80;1.15;;;;;24.60;100867.00;;;;2070293;28;20214;-50
2022/07/04 02:03:30;;;;;;;2.13;1.23;;;;;24.70;100870.00;;;;2070284;28;20214;-49
2022/07/04 02:04:30;;;;;;;3.47;1.30;;;;;24.60;100867.00;;;;2068225;28;20316;-50
2022/07/04 02:05:31;;;;;;;1.93;1.00;;;;;24.60;100871.00;;;;2073755;28;20566;-49
2022/07/04 02:06:32;;;;;;;1.80;1.10;;;;;24.60;100856.00;;;;2078324;28;20632;-49
2022/07/04 02:07:32;;;;;;;2.43;1.30;;;;;24.70;100862.00;;;;2077329;28;20217;-49
2022/07/04 02:09:51;;;;;;;2.35;1.40;;;;;24.70;100874.00;;;;2078527;28;20677;-50
2022/07/04 02:10:52;;;;;;;2.37;0.90;;;;;24.70;100874.00;;;;2071532;28;20241;-50
2022/07/04 02:13:11;;;;;;;1.42;1.00;;;;;24.60;100876.00;;;;2077887;28;20244;-49
2022/07/04 02:14:11;;;;;;;2.63;1.30;;;;;24.60;100870.00;;;;2079873;28;20612;-49
2022/07/04 02:15:12;;;;;;;1.30;1.00;;;;;24.60;100872.00;;;;2079805;28;20275;-50
2022/07/04 02:16:12;;;;;;;2.97;1.23;;;;;24.70;100867.00;;;;2079826;28;20272;-49
2022/07/04 02:17:12;;;;;;;2.27;1.57;;;;;24.60;100871.00;;;;2078482;28;20221;-51
2022/07/04 02:18:13;;;;;;;2.80;1.30;;;;;24.60;100877.00;;;;2078223;28;20218;-50
2022/07/04 02:19:13;;;;;;;2.93;1.50;;;;;24.60;100867.00;;;;2080038;28;20205;-49
2022/07/04 02:20:14;;;;;;;2.30;1.30;;;;;24.60;100877.00;;;;2079459;28;20602;-49
2022/07/04 02:21:14;;;;;;;2.50;1.20;;;;;24.60;100873.00;;;;2079795;28;20228;-49
2022/07/04 02:22:15;;;;;;;1.73;0.90;;;;;24.70;100866.00;;;;2080028;28;20259;-49
2022/07/04 02:23:15;;;;;;;3.50;1.30;;;;;24.60;100871.00;;;;2079747;28;20588;-49
2022/07/04 02:24:15;;;;;;;3.13;1.63;;;;;24.60;100878.00;;;;2079696;28;20633;-50
2022/07/04 02:25:16;;;;;;;2.23;1.17;;;;;24.60;100873.00;;;;2079753;28;20839;-50
2022/07/04 02:26:16;;;;;;;1.40;0.90;;;;;24.60;100876.00;;;;2079847;28;20259;-49
2022/07/04 02:27:17;;;;;;;1.20;1.00;;;;;24.60;100878.00;;;;2079414;28;20709;-51
2022/07/04 02:28:18;;;;;;;1.97;1.07;;;;;24.60;100881.00;;;;2079167;28;20782;-49
2022/07/04 02:29:18;;;;;;;2.50;1.30;;;;;24.60;100881.00;;;;2079726;28;20588;-49
2022/07/04 02:30:19;;;;;;;2.57;1.20;;;;;24.60;100882.00;;;;2079396;28;20239;-49
2022/07/04 02:31:19;;;;;;;1.30;1.10;;;;;24.70;100878.00;;;;2079687;28;20263;-49
2022/07/04 02:32:19;;;;;;;1.40;1.20;;;;;24.70;100876.00;;;;2079870;28;20229;-49
2022/07/04 02:33:19;;;;;;;1.50;1.20;;;;;24.70;100877.00;;;;2079790;28;20245;-49
2022/07/04 02:34:20;;;;;;;1.77;1.10;;;;;24.60;100879.00;;;;2079774;28;25878;-50
2022/07/04 02:35:20;;;;;;;1.67;1.00;;;;;24.60;100878.00;;;;2078999;28;25050;-49
2022/07/04 02:36:20;;;;;;;1.97;0.77;;;;;24.60;100893.00;;;;2079546;28;20609;-49
2022/07/04 02:37:21;;;;;;;3.03;1.50;;;;;24.60;100879.00;;;;2078977;28;20699;-49
2022/07/04 02:38:21;;;;;;;2.30;1.20;;;;;24.60;100885.00;;;;2079486;28;20236;-49
2022/07/04 02:39:21;;;;;;;1.37;1.00;;;;;24.60;100883.00;;;;2079798;28;20222;-49
2022/07/04 02:40:22;;;;;;;5.37;1.70;;;;;24.60;100887.00;;;;2079451;28;20217;-49
2022/07/04 02:41:22;;;;;;;1.83;1.30;;;;;24.70;100888.00;;;;2079823;28;20637;-49
2022/07/04 02:42:22;;;;;;;2.50;1.20;;;;;24.70;100891.00;;;;2079843;28;20218;-50
2022/07/04 02:43:23;;;;;;;2.10;1.20;;;;;24.60;100890.00;;;;2079520;28;20221;-49
2022/07/04 02:44:23;;;;;;;1.90;1.23;;;;;24.70;100894.00;;;;2079447;28;20309;-49
2022/07/04 02:45:24;;;;;;;2.10;0.83;;;;;24.70;100888.00;;;;2079582;28;20218;-49
2022/07/04 02:46:24;;;;;;;2.17;1.10;;;;;24.60;100888.00;;;;2079676;28;20221;-49
2022/07/04 02:47:24;;;;;;;2.00;1.17;;;;;24.70;100889.00;;;;2078674;28;20296;-50
2022/07/04 02:48:25;;;;;;;1.30;1.10;;;;;24.70;100896.00;;;;2078804;28;20225;-49
2022/07/04 02:49:25;;;;;;;2.27;1.30;;;;;24.60;100894.00;;;;2078895;28;20228;-49
2022/07/04 02:50:25;;;;;;;1.90;1.00;;;;;24.70;100896.00;;;;2079356;28;20225;-48
2022/07/04 02:51:26;;;;;;;3.10;1.20;;;;;24.60;100902.00;;;;2079738;28;20271;-49
2022/07/04 02:52:26;;;;;;;1.70;0.90;;;;;24.70;100897.00;;;;2079670;28;20213;-49
2022/07/04 02:53:26;;;;;;;1.97;1.30;;;;;24.70;100896.00;;;;2079756;28;20237;-50
2022/07/04 02:54:27;;;;;;;2.20;1.10;;;;;24.70;100896.00;;;;2079417;28;20224;-49
2022/07/04 02:55:27;;;;;;;2.13;1.00;;;;;24.70;100895.00;;;;2079752;28;20229;-50
2022/07/04 02:56:27;;;;;;;1.60;1.10;;;;;24.60;100898.00;;;;2079452;28;20226;-50
2022/07/04 02:57:27;;;;;;;1.83;1.20;;;;;24.60;100897.00;;;;2078700;28;20216;-50
2022/07/04 02:58:28;;;;;;;2.17;1.40;;;;;24.60;100900.00;;;;2072854;28;20222;-50
2022/07/04 02:59:28;;;;;;;2.20;1.20;;;;;24.70;100899.00;;;;2070841;28;20244;-50
2022/07/04 03:00:28;;;;;;;1.37;1.00;;;;;24.70;100901.00;;;;2071197;28;20309;-49
2022/07/04 03:01:29;;;;;;;2.30;1.00;;;;;24.70;100900.00;;;;2071254;28;20222;-50
2022/07/04 03:02:29;;;;;;;1.40;1.03;;;;;24.60;100902.00;;;;2071454;28;20222;-50
2022/07/04 03:03:29;;;;;;;2.27;1.23;;;;;24.70;100902.00;;;;2071446;28;20252;-50
2022/07/04 03:04:30;;;;;;;1.70;1.20;;;;;24.60;100909.00;;;;2071439;28;20232;-49
2022/07/04 03:05:32;;;;;;;3.53;1.10;;;;;24.70;100908.00;;;;2070550;28;20253;-49
2022/07/04 03:06:32;;;;;;;1.42;1.10;;;;;24.60;100901.00;;;;2070722;28;20221;-49
2022/07/04 03:07:32;;;;;;;1.53;0.90;;;;;24.70;100912.00;;;;2070434;28;20253;-49
2022/07/04 03:08:33;;;;;;;2.27;1.20;;;;;24.70;100920.00;;;;2071315;28;20223;-49
2022/07/04 03:09:33;;;;;;;1.97;1.07;;;;;24.70;100916.00;;;;2071168;28;20242;-50
2022/07/04 03:10:34;;;;;;;2.50;0.90;;;;;24.60;100918.00;;;;2071170;28;20222;-49
2022/07/04 03:11:34;;;;;;;1.97;1.10;;;;;24.70;100930.00;;;;2071444;28;20246;-49
2022/07/04 03:12:35;;;;;;;2.07;1.20;;;;;24.70;100922.00;;;;2071317;28;20218;-48
2022/07/04 03:13:36;;;;;;;2.30;1.07;;;;;24.70;100925.00;;;;2071718;28;20218;-49
2022/07/04 03:14:36;;;;;;;1.20;0.90;;;;;24.60;100929.00;;;;2071051;28;20210;-49
2022/07/04 03:15:36;;;;;;;3.13;0.97;;;;;24.60;100919.00;;;;2071154;28;20733;-51
2022/07/04 03:16:37;;;;;;;1.90;1.13;;;;;24.60;100922.00;;;;2070681;28;20699;-50
2022/07/04 03:17:37;;;;;;;2.23;1.13;;;;;24.60;100926.00;;;;2068181;28;20225;-54
2022/07/04 03:18:38;;;;;;;1.77;1.30;;;;;24.60;100942.00;;;;2070202;28;20221;-49
2022/07/04 03:19:38;;;;;;;2.37;1.30;;;;;24.60;100925.00;;;;2070407;28;20218;-50
2022/07/04 03:20:38;;;;;;;2.07;1.20;;;;;24.60;100923.00;;;;2070735;28;20218;-50
2022/07/04 03:21:39;;;;;;;3.00;1.00;;;;;24.60;100927.00;;;;2074933;28;20225;-50
2022/07/04 03:22:39;;;;;;;1.90;1.10;;;;;24.60;100932.00;;;;2079164;28;20242;-49
2022/07/04 03:23:39;;;;;;;1.97;1.10;;;;;24.60;100924.00;;;;2078707;28;20217;-49
2022/07/04 03:24:39;;;;;;;2.50;1.23;;;;;24.60;100927.00;;;;2078816;28;20264;-50
2022/07/04 03:25:40;;;;;;;2.17;1.00;;;;;24.60;100932.00;;;;2078669;28;20237;-50
2022/07/04 03:26:40;;;;;;;1.80;0.90;;;;;24.60;100930.00;;;;2067618;28;20218;-49
2022/07/04 03:27:40;;;;;;;2.13;0.90;;;;;24.60;100931.00;;;;2070312;28;20226;-49
2022/07/04 03:28:41;;;;;;;1.47;0.90;;;;;24.60;100937.00;;;;2071209;28;20225;-49
2022/07/04 03:29:41;;;;;;;2.70;1.20;;;;;24.60;100940.00;;;;2070972;28;20218;-49
2022/07/04 03:30:41;;;;;;;1.50;1.00;;;;;24.60;100943.00;;;;2070973;28;20218;-49
2022/07/04 03:31:42;;;;;;;1.60;1.00;;;;;24.60;100941.00;;;;2071293;28;20225;-50
2022/07/04 03:32:42;;;;;;;1.93;1.20;;;;;24.60;100934.00;;;;2071293;28;20218;-49
2022/07/04 03:33:42;;;;;;;2.10;1.10;;;;;24.60;100930.00;;;;2071102;28;20206;-50
2022/07/04 03:34:43;;;;;;;1.50;1.07;;;;;24.60;100933.00;;;;2071077;28;20276;-50
2022/07/04 03:35:43;;;;;;;1.70;1.00;;;;;24.60;100930.00;;;;2071221;28;20272;-50
2022/07/04 03:36:43;;;;;;;2.60;1.23;;;;;24.60;100931.00;;;;2071150;28;20284;-50
2022/07/04 03:37:44;;;;;;;1.60;1.10;;;;;24.60;100933.00;;;;2070136;28;20218;-49
2022/07/04 03:38:44;;;;;;;1.67;1.03;;;;;24.60;100938.00;;;;2071045;28;20252;-50
2022/07/04 03:39:44;;;;;;;1.90;1.27;;;;;24.60;100932.00;;;;2075883;28;20209;-49
2022/07/04 03:40:45;;;;;;;1.40;1.00;;;;;24.60;100939.00;;;;2079025;28;20264;-49
2022/07/04 03:41:45;;;;;;;2.33;0.90;;;;;24.60;100943.00;;;;2079121;28;20664;-50
2022/07/04 03:42:45;;;;;;;1.20;0.90;;;;;24.40;100944.00;;;;2078966;28;20624;-49
2022/07/04 03:43:46;;;;;;;3.20;1.30;;;;;24.60;100947.00;;;;2078114;28;20624;-50
2022/07/04 03:44:46;;;;;;;1.73;1.20;;;;;24.60;100946.00;;;;2071037;28;20224;-49
2022/07/04 03:45:46;;;;;;;1.90;1.50;;;;;24.60;100946.00;;;;2070642;28;20214;-51
2022/07/04 03:46:47;;;;;;;1.67;0.90;;;;;24.60;100945.00;;;;2070557;28;20203;-50
2022/07/04 03:47:47;;;;;;;1.90;1.00;;;;;24.60;100944.00;;;;2069983;28;20206;-49
2022/07/04 03:48:47;;;;;;;1.53;0.90;;;;;24.60;100940.00;;;;2071136;28;20207;-49
2022/07/04 03:49:48;;;;;;;1.37;0.90;;;;;24.60;100950.00;;;;2071131;28;20214;-49
2022/07/04 03:50:48;;;;;;;2.17;1.03;;;;;24.60;100949.00;;;;2070793;28;20218;-49
2022/07/04 03:51:49;;;;;;;1.20;0.80;;;;;24.60;100952.00;;;;2071423;28;20567;-49
2022/07/04 03:52:49;;;;;;;1.63;1.00;;;;;24.60;100952.00;;;;2079113;28;20212;-49
2022/07/04 03:53:49;;;;;;;1.60;0.90;;;;;24.60;100941.00;;;;2079150;28;20201;-49
2022/07/04 03:54:50;;;;;;;1.50;0.90;;;;;24.60;100950.00;;;;2079216;28;20205;-49
2022/07/04 03:55:50;;;;;;;1.77;1.07;;;;;24.60;100943.00;;;;2079182;28;20210;-49
2022/07/04 03:56:50;;;;;;;1.57;1.10;;;;;24.60;100950.00;;;;2078746;28;20213;-49
2022/07/04 03:57:51;;;;;;;1.50;1.20;;;;;24.60;100950.00;;;;2077400;28;20855;-49
2022/07/04 03:58:51;;;;;;;1.40;0.83;;;;;24.60;100944.00;;;;2077423;28;20780;-49
2022/07/04 03:59:51;;;;;;;2.20;1.23;;;;;24.60;100946.00;;;;2079290;28;20214;-48
2022/07/04 04:00:52;;;;;;;1.10;0.80;;;;;24.60;100951.00;;;;2071021;28;20284;-49
2022/07/04 04:01:52;;;;;;;1.73;1.00;;;;;24.60;100951.00;;;;2070292;28;20222;-50
2022/07/04 04:02:52;;;;;;;1.33;1.03;;;;;24.60;100952.00;;;;2079237;28;20217;-50
2022/07/04 04:05:27;;;;;;;1.50;1.20;;;;;24.60;100954.00;;;;2071196;28;20241;-49
2022/07/04 04:06:28;;;;;;;1.45;1.23;;;;;24.60;100957.00;;;;2070924;28;20206;-49
2022/07/04 04:07:28;;;;;;;1.67;0.97;;;;;24.60;100950.00;;;;2069976;28;20725;-48
2022/07/04 04:08:28;;;;;;;1.40;1.10;;;;;24.60;100945.00;;;;2070885;28;20449;-49
2022/07/04 04:09:29;;;;;;;2.30;1.10;;;;;24.60;100947.00;;;;2070776;28;20246;-49
2022/07/04 04:10:30;;;;;;;1.40;0.87;;;;;24.60;100953.00;;;;2070686;28;20241;-49
2022/07/04 04:11:31;;;;;;;1.30;1.00;;;;;24.60;100940.00;;;;2070762;28;20210;-49
2022/07/04 04:12:31;;;;;;;2.50;1.20;;;;;24.60;100946.00;;;;2071063;28;20206;-49
2022/07/04 04:13:32;;;;;;;1.77;1.10;;;;;24.60;100950.00;;;;2070938;28;20229;-50
2022/07/04 04:14:32;;;;;;;2.07;1.17;;;;;24.60;100946.00;;;;2070805;28;20712;-49
2022/07/04 04:15:32;;;;;;;2.93;1.00;;;;;24.60;100949.00;;;;2071047;28;20590;-49
2022/07/04 04:16:33;;;;;;;1.70;1.10;;;;;24.60;100949.00;;;;2070485;28;20633;-50
2022/07/04 04:17:33;;;;;;;2.37;1.20;;;;;24.60;100943.00;;;;2070149;28;20230;-49
2022/07/04 04:18:33;;;;;;;1.40;1.10;;;;;24.60;100949.00;;;;2070300;28;20214;-49
2022/07/04 04:19:33;;;;;;;2.10;1.10;;;;;24.60;100952.00;;;;2069905;28;20225;-50
2022/07/04 04:20:34;;;;;;;1.60;0.80;;;;;24.60;100951.00;;;;2070954;28;20210;-50
2022/07/04 04:21:34;;;;;;;1.60;1.10;;;;;24.60;100954.00;;;;2074330;28;20252;-50
2022/07/04 04:22:35;;;;;;;1.30;1.00;;;;;24.60;100959.00;;;;2078431;28;20627;-50
2022/07/04 04:23:35;;;;;;;4.23;1.23;;;;;24.60;100956.00;;;;2078825;28;20332;-48
2022/07/04 04:24:35;;;;;;;2.00;1.27;;;;;24.60;100966.00;;;;2078816;28;20311;-50
2022/07/04 04:25:36;;;;;;;1.50;0.90;;;;;24.60;100963.00;;;;2078472;28;20226;-50
2022/07/04 04:26:36;;;;;;;2.53;1.53;;;;;24.60;100960.00;;;;2078960;28;20577;-50
2022/07/04 04:27:36;;;;;;;1.33;0.90;;;;;24.60;100956.00;;;;2078086;28;20611;-50
2022/07/04 04:28:37;;;;;;;2.80;1.50;;;;;24.60;100956.00;;;;2078949;28;20221;-50
2022/07/04 04:29:37;;;;;;;1.87;1.20;;;;;24.60;100954.00;;;;2078985;28;20300;-50
2022/07/04 04:30:37;;;;;;;1.30;1.00;;;;;24.60;100864.00;;;;2078297;28;20677;-49
2022/07/04 04:31:38;;;;;;;1.60;1.00;;;;;24.60;100961.00;;;;2077758;28;20284;-49
2022/07/04 04:32:38;;;;;;;1.60;1.03;;;;;24.60;100957.00;;;;2076409;28;20910;-49
2022/07/04 04:33:40;;;;;;;2.30;1.20;;;;;24.60;100962.00;;;;2078824;28;20613;-50
2022/07/04 04:34:40;;;;;;;1.45;0.90;;;;;24.60;100967.00;;;;2067400;28;20281;-50
2022/07/04 04:35:41;;;;;;;1.60;0.90;;;;;24.60;100966.00;;;;2070755;28;20349;-51
2022/07/04 04:36:41;;;;;;;1.43;1.03;;;;;24.60;100968.00;;;;2069871;28;20314;-50
2022/07/04 04:37:41;;;;;;;1.40;1.20;;;;;24.60;100966.00;;;;2069759;28;20210;-50
2022/07/04 04:38:42;;;;;;;1.40;0.97;;;;;24.60;100968.00;;;;2070626;28;20248;-50
2022/07/04 04:39:42;;;;;;;1.60;1.20;;;;;24.60;100969.00;;;;2070633;28;20280;-49
2022/07/04 04:40:43;;;;;;;2.03;1.30;;;;;24.60;100968.00;;;;2070536;28;21024;-49
2022/07/04 04:41:43;;;;;;;1.77;1.20;;;;;24.60;100970.00;;;;2070566;28;20214;-49
2022/07/04 04:42:43;;;;;;;3.20;1.40;;;;;24.60;100965.00;;;;2070627;28;20268;-49
2022/07/04 04:43:43;;;;;;;2.37;1.47;;;;;24.60;100969.00;;;;2075050;28;20244;-50
2022/07/04 04:44:44;;;;;;;1.50;1.00;;;;;24.60;100969.00;;;;2078031;28;20732;-50
2022/07/04 04:45:44;;;;;;;1.90;1.10;;;;;24.60;100967.00;;;;2078838;28;20252;-50
2022/07/04 04:46:45;;;;;;;1.53;1.10;;;;;24.60;100961.00;;;;2078713;28;20240;-49
2022/07/04 04:47:46;;;;;;;1.73;1.20;;;;;24.60;100962.00;;;;2076721;28;20256;-49
2022/07/04 04:48:46;;;;;;;2.13;1.03;;;;;24.60;100970.00;;;;2070643;28;20914;-49
2022/07/04 04:49:47;;;;;;;2.03;1.10;;;;;24.60;100964.00;;;;2070761;28;20709;-50
2022/07/04 04:50:47;;;;;;;1.83;1.20;;;;;24.60;100960.00;;;;2070440;28;20690;-49
2022/07/04 04:51:47;;;;;;;1.80;1.23;;;;;24.60;100965.00;;;;2070544;28;20217;-50
2022/07/04 04:52:48;;;;;;;1.73;1.00;;;;;24.60;100967.00;;;;2070544;28;20639;-50
2022/07/04 04:53:48;;;;;;;2.73;1.20;;;;;24.60;100974.00;;;;2070807;28;20773;-50
2022/07/04 04:54:48;;;;;;;1.33;0.90;;;;;24.60;100978.00;;;;2070342;28;20598;-50
2022/07/04 04:55:49;;;;;;;1.93;1.50;;;;;24.60;100974.00;;;;2066393;28;20210;-49
2022/07/04 04:56:49;;;;;;;1.97;1.10;;;;;24.60;100978.00;;;;2070592;28;20245;-50
2022/07/04 04:57:49;;;;;;;2.67;1.03;;;;;24.60;100968.00;;;;2069621;28;20210;-50
2022/07/04 04:58:50;;;;;;;1.50;1.17;;;;;24.60;100976.00;;;;2070419;28;20214;-50
2022/07/04 04:59:50;;;;;;;1.73;1.10;;;;;24.60;100972.00;;;;2070685;28;20276;-49
2022/07/04 05:00:50;;;;;;;3.30;1.30;;;;;24.60;100971.00;;;;2070612;28;20206;-49
2022/07/04 05:01:51;;;;;;;1.87;1.07;;;;;24.60;100972.00;;;;2070552;28;20579;-48
2022/07/04 05:02:51;;;;;;;1.83;1.00;;;;;24.60;100971.00;;;;2069831;28;20222;-53
2022/07/04 05:03:51;;;;;;;2.10;1.20;;;;;24.60;100973.00;;;;2070612;28;20217;-53
2022/07/04 05:04:52;;;;;;;1.73;1.10;;;;;24.60;100971.00;;;;2070429;28;20221;-51